You are listening to:
RJAA Radar 119.025 - Tokyo, Japan

RJAA 121600Z AUTO 36009KT 9000 NCD 13/12 Q1017 NOSIG

If stream doesn't start automatically press the play button
If stream stops then reload player then press play